Portada
METAR-TAF:

METAR-TAF

Aeropuertos :

Aeropuerto Internacional de Moscú-Sheremétievo

Moscú-Sheremetyevo, Rusia

latitud: 55-58N, longitud: 037-25E, altitud: 190 m

Observación

El informe se hizo hace 40 minutos, a las 02:00 UTC
Viento 6 kt del oeste-suroeste
Temperatura 10°C
Humedad 87%
Presión 1023 hPa
Visibilidad 10 km o más
sin nubes por debajo de 1500 m y sin presencia de cumulonimbus.

METAR: UUEE 280200Z 24003MPS CAVOK 10/08 Q1023 R24L/CLRD62 NOSIG

Hora: 05:40 (02:40 UTC)

Pronóstico

El informe se hizo hace 44 minutos, a las 01:56 UTC
Pronóstico válido del 28 a las 03 UTC al 29 a las 03 UTC
Viento 6 kt del sur-suroeste
Visibilidad 10 km o más
Nubes dispersas a una altura de 3000 ft
Evolucionando progresivamente
del 28 a las 15 UTC al 28 a las 17 UTC
Viento 6 kt del este

TAF: UUEE 280156Z 2803/2903 21003MPS 9999 SCT030 TX20/2812Z TN11/2803Z BECMG 2815/2817 09003MPS

Observaciones y pronósticos meteorológicos de más de 4000 aeropuertos (mensajes METAR y TAF).

Los puntos amarillos y rojos representan las estaciones disponibles.

Ponga el ratón en el punto deseado para ver el nombre de la estación.

Haga clic para ver las observaciones y los pronósticos meteorológicos.

Para cambiar el mapa : haga clic en los botones verdes con una cruz de color negro para hacer un zoom, en el botón verde con un guión para alejar o en las flechas verdes para mapas adyacentes.


METAR-TAF: